sensor_id;sensor_type;location;lat;lon;timestamp;pressure;altitude;pressure_sealevel;temperature;humidity
25510;BME280;13413;52.336;21.200;2023-05-11T00:01:27;101082.45;;;11.89;40.06
25510;BME280;13413;52.336;21.200;2023-05-11T00:04:20;101079.26;;;11.77;40.25
25510;BME280;13413;52.336;21.200;2023-05-11T00:07:14;101078.89;;;11.76;40.17
25510;BME280;13413;52.336;21.200;2023-05-11T00:10:10;101079.21;;;11.75;40.20
25510;BME280;13413;52.336;21.200;2023-05-11T00:13:04;101081.58;;;11.76;40.30
25510;BME280;13413;52.336;21.200;2023-05-11T00:19:05;101076.76;;;11.73;40.16
25510;BME280;13413;52.336;21.200;2023-05-11T00:21:59;101072.10;;;11.72;40.31
25510;BME280;13413;52.336;21.200;2023-05-11T00:24:54;101074.21;;;11.68;40.18
25510;BME280;13413;52.336;21.200;2023-05-11T00:27:47;101077.63;;;11.66;40.36
25510;BME280;13413;52.336;21.200;2023-05-11T00:30:42;101074.50;;;11.64;40.51
25510;BME280;13413;52.336;21.200;2023-05-11T00:33:36;101071.77;;;11.60;40.41
25510;BME280;13413;52.336;21.200;2023-05-11T00:36:29;101076.80;;;11.59;40.60
25510;BME280;13413;52.336;21.200;2023-05-11T00:39:24;101073.89;;;11.53;40.81
25510;BME280;13413;52.336;21.200;2023-05-11T00:42:18;101073.70;;;11.50;40.52
25510;BME280;13413;52.336;21.200;2023-05-11T00:45:12;101065.72;;;11.48;40.63
25510;BME280;13413;52.336;21.200;2023-05-11T00:48:06;101063.15;;;11.44;40.71
25510;BME280;13413;52.336;21.200;2023-05-11T00:51:00;101059.91;;;11.38;40.97
25510;BME280;13413;52.336;21.200;2023-05-11T00:53:55;101061.40;;;11.31;41.03
25510;BME280;13413;52.336;21.200;2023-05-11T00:56:49;101058.49;;;11.27;40.92
25510;BME280;13413;52.336;21.200;2023-05-11T01:02:25;101057.56;;;11.26;40.98
25510;BME280;13413;52.336;21.200;2023-05-11T01:05:20;101062.04;;;11.22;41.26
25510;BME280;13413;52.336;21.200;2023-05-11T01:08:16;101060.93;;;11.22;41.15
25510;BME280;13413;52.336;21.200;2023-05-11T01:11:16;101058.84;;;11.19;41.19
25510;BME280;13413;52.336;21.200;2023-05-11T01:14:17;101058.56;;;11.13;41.37
25510;BME280;13413;52.336;21.200;2023-05-11T01:17:20;101056.20;;;11.02;41.69
25510;BME280;13413;52.336;21.200;2023-05-11T01:20:20;101054.35;;;10.99;41.59
25510;BME280;13413;52.336;21.200;2023-05-11T01:23:42;101056.33;;;10.96;41.72
25510;BME280;13413;52.336;21.200;2023-05-11T01:26:45;101054.69;;;10.94;41.75
25510;BME280;13413;52.336;21.200;2023-05-11T01:33:08;101057.89;;;10.88;41.96
25510;BME280;13413;52.336;21.200;2023-05-11T01:36:06;101056.62;;;10.80;42.03
25510;BME280;13413;52.336;21.200;2023-05-11T01:39:03;101053.87;;;10.70;42.26
25510;BME280;13413;52.336;21.200;2023-05-11T01:42:00;101055.98;;;10.62;42.38
25510;BME280;13413;52.336;21.200;2023-05-11T01:44:58;101053.61;;;10.54;42.61
25510;BME280;13413;52.336;21.200;2023-05-11T01:47:54;101054.42;;;10.50;42.78
25510;BME280;13413;52.336;21.200;2023-05-11T01:50:47;101051.44;;;10.48;42.73
25510;BME280;13413;52.336;21.200;2023-05-11T01:53:43;101051.20;;;10.48;42.67
25510;BME280;13413;52.336;21.200;2023-05-11T01:56:41;101049.28;;;10.48;42.66
25510;BME280;13413;52.336;21.200;2023-05-11T01:59:39;101054.06;;;10.45;42.75
25510;BME280;13413;52.336;21.200;2023-05-11T02:02:34;101058.33;;;10.40;42.90
25510;BME280;13413;52.336;21.200;2023-05-11T02:05:30;101057.82;;;10.39;42.93
25510;BME280;13413;52.336;21.200;2023-05-11T02:08:26;101055.52;;;10.39;42.98
25510;BME280;13413;52.336;21.200;2023-05-11T02:11:23;101055.03;;;10.44;42.86
25510;BME280;13413;52.336;21.200;2023-05-11T02:14:19;101056.52;;;10.41;42.87
25510;BME280;13413;52.336;21.200;2023-05-11T02:17:16;101052.48;;;10.40;42.89
25510;BME280;13413;52.336;21.200;2023-05-11T02:20:14;101056.88;;;10.42;43.08
25510;BME280;13413;52.336;21.200;2023-05-11T02:23:09;101059.06;;;10.44;42.91
25510;BME280;13413;52.336;21.200;2023-05-11T02:26:04;101059.99;;;10.42;42.90
25510;BME280;13413;52.336;21.200;2023-05-11T02:28:58;101059.52;;;10.37;43.06
25510;BME280;13413;52.336;21.200;2023-05-11T02:31:58;101061.40;;;10.35;43.08
25510;BME280;13413;52.336;21.200;2023-05-11T02:34:59;101064.47;;;10.31;43.01
25510;BME280;13413;52.336;21.200;2023-05-11T02:37:58;101063.58;;;10.28;43.16
25510;BME280;13413;52.336;21.200;2023-05-11T02:40:56;101064.46;;;10.21;43.07
25510;BME280;13413;52.336;21.200;2023-05-11T02:43:53;101063.95;;;10.12;43.14
25510;BME280;13413;52.336;21.200;2023-05-11T02:46:49;101063.59;;;10.08;43.37
25510;BME280;13413;52.336;21.200;2023-05-11T02:49:48;101065.96;;;10.08;43.32
25510;BME280;13413;52.336;21.200;2023-05-11T02:52:45;101068.83;;;10.08;43.48
25510;BME280;13413;52.336;21.200;2023-05-11T02:55:40;101067.83;;;10.09;43.64
25510;BME280;13413;52.336;21.200;2023-05-11T02:58:35;101070.58;;;10.00;43.22
25510;BME280;13413;52.336;21.200;2023-05-11T03:01:28;101066.89;;;9.95;43.44
25510;BME280;13413;52.336;21.200;2023-05-11T03:04:21;101070.15;;;9.96;43.61
25510;BME280;13413;52.336;21.200;2023-05-11T03:07:15;101066.77;;;9.91;43.65
25510;BME280;13413;52.336;21.200;2023-05-11T03:10:11;101067.59;;;9.81;43.66
25510;BME280;13413;52.336;21.200;2023-05-11T03:13:03;101068.90;;;9.70;43.93
25510;BME280;13413;52.336;21.200;2023-05-11T03:21:31;101072.52;;;9.62;44.19
25510;BME280;13413;52.336;21.200;2023-05-11T03:24:26;101069.67;;;9.62;44.01
25510;BME280;13413;52.336;21.200;2023-05-11T03:27:19;101070.36;;;9.59;44.19
25510;BME280;13413;52.336;21.200;2023-05-11T03:30:15;101073.91;;;9.64;44.26
25510;BME280;13413;52.336;21.200;2023-05-11T03:33:10;101073.08;;;9.67;44.26
25510;BME280;13413;52.336;21.200;2023-05-11T03:36:05;101074.70;;;9.67;44.25
25510;BME280;13413;52.336;21.200;2023-05-11T03:39:02;101078.03;;;9.62;44.23
25510;BME280;13413;52.336;21.200;2023-05-11T03:41:58;101077.92;;;9.64;44.47
25510;BME280;13413;52.336;21.200;2023-05-11T03:44:54;101080.06;;;9.69;44.05
25510;BME280;13413;52.336;21.200;2023-05-11T03:47:50;101082.81;;;9.67;44.32
25510;BME280;13413;52.336;21.200;2023-05-11T03:50:45;101083.44;;;9.66;44.31
25510;BME280;13413;52.336;21.200;2023-05-11T03:53:40;101081.58;;;9.69;44.42
25510;BME280;13413;52.336;21.200;2023-05-11T03:56:36;101086.57;;;9.79;44.53
25510;BME280;13413;52.336;21.200;2023-05-11T03:59:30;101088.61;;;9.85;44.42
25510;BME280;13413;52.336;21.200;2023-05-11T04:02:24;101086.70;;;9.90;44.50
25510;BME280;13413;52.336;21.200;2023-05-11T04:05:18;101092.46;;;9.94;44.39
25510;BME280;13413;52.336;21.200;2023-05-11T04:08:12;101087.52;;;9.97;44.26
25510;BME280;13413;52.336;21.200;2023-05-11T04:11:07;101092.45;;;10.05;44.56
25510;BME280;13413;52.336;21.200;2023-05-11T04:14:01;101093.27;;;10.12;44.27
25510;BME280;13413;52.336;21.200;2023-05-11T04:16:55;101094.79;;;10.20;44.21
25510;BME280;13413;52.336;21.200;2023-05-11T04:19:49;101096.69;;;10.28;44.15
25510;BME280;13413;52.336;21.200;2023-05-11T04:22:46;101096.64;;;10.37;44.21
25510;BME280;13413;52.336;21.200;2023-05-11T04:25:40;101097.00;;;10.50;44.14
25510;BME280;13413;52.336;21.200;2023-05-11T04:28:34;101094.52;;;10.62;43.84
25510;BME280;13413;52.336;21.200;2023-05-11T04:31:28;101096.85;;;10.76;43.96
25510;BME280;13413;52.336;21.200;2023-05-11T04:34:22;101094.19;;;10.89;43.88
25510;BME280;13413;52.336;21.200;2023-05-11T04:37:16;101095.56;;;11.01;43.66
25510;BME280;13413;52.336;21.200;2023-05-11T04:40:11;101094.84;;;11.13;43.60
25510;BME280;13413;52.336;21.200;2023-05-11T04:43:06;101095.74;;;11.26;43.59
25510;BME280;13413;52.336;21.200;2023-05-11T04:46:00;101097.48;;;11.40;43.55
25510;BME280;13413;52.336;21.200;2023-05-11T04:48:54;101095.58;;;11.54;43.37
25510;BME280;13413;52.336;21.200;2023-05-11T04:51:49;101098.71;;;11.63;43.25
25510;BME280;13413;52.336;21.200;2023-05-11T04:54:43;101103.45;;;11.77;43.39
25510;BME280;13413;52.336;21.200;2023-05-11T04:57:37;101104.85;;;11.88;43.28
25510;BME280;13413;52.336;21.200;2023-05-11T05:00:31;101110.41;;;11.99;43.19
25510;BME280;13413;52.336;21.200;2023-05-11T05:03:25;101113.02;;;11.99;42.75
25510;BME280;13413;52.336;21.200;2023-05-11T05:06:19;101110.17;;;11.95;42.84
25510;BME280;13413;52.336;21.200;2023-05-11T05:09:13;101113.13;;;12.05;42.90
25510;BME280;13413;52.336;21.200;2023-05-11T05:12:07;101110.23;;;12.17;42.83
25510;BME280;13413;52.336;21.200;2023-05-11T05:15:01;101114.02;;;12.21;42.39
25510;BME280;13413;52.336;21.200;2023-05-11T05:17:55;101110.83;;;12.23;42.59
25510;BME280;13413;52.336;21.200;2023-05-11T05:20:50;101115.95;;;12.29;42.59
25510;BME280;13413;52.336;21.200;2023-05-11T05:23:44;101116.52;;;12.46;42.67
25510;BME280;13413;52.336;21.200;2023-05-11T05:26:38;101117.95;;;12.61;42.52
25510;BME280;13413;52.336;21.200;2023-05-11T05:29:33;101120.77;;;12.76;42.23
25510;BME280;13413;52.336;21.200;2023-05-11T05:32:27;101122.45;;;12.84;42.05
25510;BME280;13413;52.336;21.200;2023-05-11T05:45:43;101128.78;;;13.37;41.26
25510;BME280;13413;52.336;21.200;2023-05-11T05:48:37;101130.40;;;13.51;41.22
25510;BME280;13413;52.336;21.200;2023-05-11T05:51:31;101127.20;;;13.75;40.77
25510;BME280;13413;52.336;21.200;2023-05-11T05:54:25;101124.97;;;13.87;40.37
25510;BME280;13413;52.336;21.200;2023-05-11T05:57:19;101127.79;;;13.97;40.26
25510;BME280;13413;52.336;21.200;2023-05-11T06:00:15;101129.56;;;14.07;39.80
25510;BME280;13413;52.336;21.200;2023-05-11T06:03:09;101122.81;;;14.12;39.50
25510;BME280;13413;52.336;21.200;2023-05-11T06:06:03;101127.92;;;14.22;39.61
25510;BME280;13413;52.336;21.200;2023-05-11T06:08:58;101129.03;;;14.42;39.29
25510;BME280;13413;52.336;21.200;2023-05-11T06:11:53;101127.96;;;14.52;39.03
25510;BME280;13413;52.336;21.200;2023-05-11T06:14:47;101131.33;;;14.67;38.72
25510;BME280;13413;52.336;21.200;2023-05-11T06:17:41;101131.52;;;14.86;38.42
25510;BME280;13413;52.336;21.200;2023-05-11T06:20:35;101134.07;;;14.96;38.39
25510;BME280;13413;52.336;21.200;2023-05-11T06:23:29;101133.41;;;15.07;38.11
25510;BME280;13413;52.336;21.200;2023-05-11T06:26:23;101135.09;;;15.16;37.87
25510;BME280;13413;52.336;21.200;2023-05-11T06:29:17;101137.48;;;15.27;37.68
25510;BME280;13413;52.336;21.200;2023-05-11T06:32:11;101139.70;;;15.34;37.21
25510;BME280;13413;52.336;21.200;2023-05-11T06:35:08;101146.60;;;15.46;37.02
25510;BME280;13413;52.336;21.200;2023-05-11T06:38:02;101145.58;;;15.55;36.48
25510;BME280;13413;52.336;21.200;2023-05-11T06:40:56;101144.14;;;15.63;36.71
25510;BME280;13413;52.336;21.200;2023-05-11T06:43:50;101146.66;;;15.75;36.03
25510;BME280;13413;52.336;21.200;2023-05-11T06:46:44;101153.20;;;15.90;36.15
25510;BME280;13413;52.336;21.200;2023-05-11T06:49:38;101150.77;;;15.94;35.20
25510;BME280;13413;52.336;21.200;2023-05-11T06:52:32;101146.55;;;16.01;35.70
25510;BME280;13413;52.336;21.200;2023-05-11T06:55:26;101146.00;;;16.09;35.37
25510;BME280;13413;52.336;21.200;2023-05-11T06:58:20;101148.80;;;16.23;35.76
25510;BME280;13413;52.336;21.200;2023-05-11T07:01:14;101146.07;;;16.40;35.31
25510;BME280;13413;52.336;21.200;2023-05-11T07:04:08;101151.73;;;16.47;34.99
25510;BME280;13413;52.336;21.200;2023-05-11T07:07:02;101149.02;;;16.60;33.99
25510;BME280;13413;52.336;21.200;2023-05-11T07:09:56;101149.08;;;16.64;33.06
25510;BME280;13413;52.336;21.200;2023-05-11T07:12:50;101147.95;;;16.62;33.20
25510;BME280;13413;52.336;21.200;2023-05-11T07:15:44;101154.54;;;16.72;32.57
25510;BME280;13413;52.336;21.200;2023-05-11T07:18:38;101153.75;;;16.78;32.70
25510;BME280;13413;52.336;21.200;2023-05-11T07:21:32;101144.91;;;16.74;31.95
25510;BME280;13413;52.336;21.200;2023-05-11T07:24:27;101143.33;;;16.86;32.05
25510;BME280;13413;52.336;21.200;2023-05-11T07:27:21;101140.89;;;17.07;32.30
25510;BME280;13413;52.336;21.200;2023-05-11T07:30:14;101150.62;;;17.22;31.55
25510;BME280;13413;52.336;21.200;2023-05-11T07:33:09;101146.28;;;17.29;31.45
25510;BME280;13413;52.336;21.200;2023-05-11T07:36:03;101144.38;;;17.37;30.19
25510;BME280;13413;52.336;21.200;2023-05-11T07:38:58;101146.35;;;17.37;29.83
25510;BME280;13413;52.336;21.200;2023-05-11T07:41:52;101144.52;;;17.33;29.12
25510;BME280;13413;52.336;21.200;2023-05-11T07:44:46;101149.85;;;17.36;29.47
25510;BME280;13413;52.336;21.200;2023-05-11T07:47:40;101135.59;;;17.40;30.02
25510;BME280;13413;52.336;21.200;2023-05-11T07:50:33;101137.27;;;17.45;29.65
25510;BME280;13413;52.336;21.200;2023-05-11T07:53:27;101133.16;;;17.43;30.04
25510;BME280;13413;52.336;21.200;2023-05-11T07:56:19;101133.20;;;17.54;29.76
25510;BME280;13413;52.336;21.200;2023-05-11T08:05:27;101125.89;;;18.03;29.75
25510;BME280;13413;52.336;21.200;2023-05-11T08:11:26;101128.45;;;17.97;28.79
25510;BME280;13413;52.336;21.200;2023-05-11T08:14:19;101124.11;;;18.00;28.56
25510;BME280;13413;52.336;21.200;2023-05-11T08:17:11;101126.28;;;18.19;28.98
25510;BME280;13413;52.336;21.200;2023-05-11T08:20:04;101121.19;;;18.36;28.99
25510;BME280;13413;52.336;21.200;2023-05-11T08:22:58;101123.31;;;18.55;29.27
25510;BME280;13413;52.336;21.200;2023-05-11T08:25:52;101127.11;;;18.62;28.65
25510;BME280;13413;52.336;21.200;2023-05-11T08:28:44;101121.91;;;18.73;29.02
25510;BME280;13413;52.336;21.200;2023-05-11T08:31:37;101116.95;;;18.74;28.67
25510;BME280;13413;52.336;21.200;2023-05-11T08:34:30;101121.44;;;18.61;27.98
25510;BME280;13413;52.336;21.200;2023-05-11T08:37:23;101117.67;;;18.47;28.17
25510;BME280;13413;52.336;21.200;2023-05-11T08:40:17;101117.30;;;18.66;28.26
25510;BME280;13413;52.336;21.200;2023-05-11T08:43:11;101113.42;;;18.54;27.02
25510;BME280;13413;52.336;21.200;2023-05-11T08:46:06;101112.34;;;18.49;27.53
25510;BME280;13413;52.336;21.200;2023-05-11T08:49:00;101108.55;;;18.78;27.94
25510;BME280;13413;52.336;21.200;2023-05-11T08:51:53;101113.05;;;18.95;27.01
25510;BME280;13413;52.336;21.200;2023-05-11T08:54:46;101113.92;;;18.96;27.59
25510;BME280;13413;52.336;21.200;2023-05-11T08:57:40;101108.55;;;19.16;27.61
25510;BME280;13413;52.336;21.200;2023-05-11T09:00:36;101112.30;;;19.20;26.97
25510;BME280;13413;52.336;21.200;2023-05-11T09:06:40;101102.38;;;19.24;26.80
25510;BME280;13413;52.336;21.200;2023-05-11T09:09:33;101105.14;;;19.51;26.63
25510;BME280;13413;52.336;21.200;2023-05-11T09:12:26;101104.88;;;19.32;25.90
25510;BME280;13413;52.336;21.200;2023-05-11T09:15:19;101102.78;;;19.30;26.54
25510;BME280;13413;52.336;21.200;2023-05-11T09:18:12;101106.35;;;19.33;26.21
25510;BME280;13413;52.336;21.200;2023-05-11T09:21:06;101102.33;;;19.39;26.44
25510;BME280;13413;52.336;21.200;2023-05-11T09:23:59;101099.05;;;19.60;26.25
25510;BME280;13413;52.336;21.200;2023-05-11T09:27:06;101097.56;;;19.71;26.34
25510;BME280;13413;52.336;21.200;2023-05-11T09:30:10;101104.41;;;20.04;26.47
25510;BME280;13413;52.336;21.200;2023-05-11T09:33:02;101091.86;;;20.07;26.17
25510;BME280;13413;52.336;21.200;2023-05-11T09:35:55;101093.73;;;20.03;25.98
25510;BME280;13413;52.336;21.200;2023-05-11T09:38:48;101097.16;;;19.98;25.94
25510;BME280;13413;52.336;21.200;2023-05-11T09:41:43;101090.30;;;19.67;25.92
25510;BME280;13413;52.336;21.200;2023-05-11T09:44:35;101088.20;;;19.51;25.93
25510;BME280;13413;52.336;21.200;2023-05-11T09:47:38;101075.67;;;19.38;25.98
25510;BME280;13413;52.336;21.200;2023-05-11T09:50:33;101088.77;;;19.66;26.32
25510;BME280;13413;52.336;21.200;2023-05-11T09:59:01;101085.13;;;20.34;25.93
25510;BME280;13413;52.336;21.200;2023-05-11T10:01:55;101082.91;;;20.14;25.40
25510;BME280;13413;52.336;21.200;2023-05-11T10:04:50;101081.42;;;20.02;25.76
25510;BME280;13413;52.336;21.200;2023-05-11T10:07:44;101077.67;;;20.00;25.58
25510;BME280;13413;52.336;21.200;2023-05-11T10:10:48;101083.70;;;20.24;26.01
25510;BME280;13413;52.336;21.200;2023-05-11T10:13:44;101082.23;;;20.66;25.36
25510;BME280;13413;52.336;21.200;2023-05-11T10:16:38;101084.79;;;20.81;25.58
25510;BME280;13413;52.336;21.200;2023-05-11T10:19:33;101081.23;;;21.33;25.24
25510;BME280;13413;52.336;21.200;2023-05-11T10:22:29;101078.27;;;21.49;25.17
25510;BME280;13413;52.336;21.200;2023-05-11T10:25:27;101073.59;;;21.50;24.83
25510;BME280;13413;52.336;21.200;2023-05-11T10:28:22;101078.27;;;21.00;24.67
25510;BME280;13413;52.336;21.200;2023-05-11T10:31:17;101078.42;;;21.22;24.75
25510;BME280;13413;52.336;21.200;2023-05-11T10:34:10;101076.02;;;21.47;24.64
25510;BME280;13413;52.336;21.200;2023-05-11T10:37:06;101070.66;;;21.35;24.66
25510;BME280;13413;52.336;21.200;2023-05-11T10:40:02;101064.92;;;21.45;24.93
25510;BME280;13413;52.336;21.200;2023-05-11T10:46:49;101062.35;;;21.20;24.83
25510;BME280;13413;52.336;21.200;2023-05-11T10:50:15;101048.96;;;21.75;24.66
25510;BME280;13413;52.336;21.200;2023-05-11T10:53:38;101059.91;;;22.28;24.96
25510;BME280;13413;52.336;21.200;2023-05-11T10:59:57;101046.65;;;22.75;24.60
25510;BME280;13413;52.336;21.200;2023-05-11T11:02:55;101048.61;;;22.62;24.91
25510;BME280;13413;52.336;21.200;2023-05-11T11:08:57;101043.03;;;22.64;24.49
25510;BME280;13413;52.336;21.200;2023-05-11T11:11:52;101050.97;;;22.66;24.53
25510;BME280;13413;52.336;21.200;2023-05-11T11:15:02;101048.05;;;22.55;24.36
25510;BME280;13413;52.336;21.200;2023-05-11T11:18:19;101037.64;;;22.69;24.59
25510;BME280;13413;52.336;21.200;2023-05-11T11:21:41;101039.32;;;22.50;24.33
25510;BME280;13413;52.336;21.200;2023-05-11T11:24:47;101041.83;;;22.22;24.41
25510;BME280;13413;52.336;21.200;2023-05-11T11:27:58;101026.66;;;21.64;24.70
25510;BME280;13413;52.336;21.200;2023-05-11T11:34:34;101037.02;;;22.20;25.55
25510;BME280;13413;52.336;21.200;2023-05-11T11:37:29;101031.09;;;22.69;25.53
25510;BME280;13413;52.336;21.200;2023-05-11T11:40:35;101036.23;;;22.62;25.09
25510;BME280;13413;52.336;21.200;2023-05-11T11:43:43;101037.24;;;22.79;25.48
25510;BME280;13413;52.336;21.200;2023-05-11T11:46:38;101032.75;;;22.88;24.78
25510;BME280;13413;52.336;21.200;2023-05-11T11:49:31;101032.75;;;22.51;25.04
25510;BME280;13413;52.336;21.200;2023-05-11T11:52:34;101035.55;;;22.36;25.16
25510;BME280;13413;52.336;21.200;2023-05-11T11:55:46;101034.04;;;22.63;25.16
25510;BME280;13413;52.336;21.200;2023-05-11T11:58:57;101035.71;;;23.04;24.86
25510;BME280;13413;52.336;21.200;2023-05-11T12:01:52;101032.70;;;22.68;24.60
25510;BME280;13413;52.336;21.200;2023-05-11T12:04:59;101039.47;;;22.59;24.55
25510;BME280;13413;52.336;21.200;2023-05-11T12:07:54;101036.66;;;22.33;24.91
25510;BME280;13413;52.336;21.200;2023-05-11T12:10:53;101030.43;;;22.30;24.65
25510;BME280;13413;52.336;21.200;2023-05-11T12:19:25;101027.38;;;22.70;24.62
25510;BME280;13413;52.336;21.200;2023-05-11T12:22:24;101031.62;;;22.83;24.44
25510;BME280;13413;52.336;21.200;2023-05-11T12:25:19;101026.45;;;22.80;24.20
25510;BME280;13413;52.336;21.200;2023-05-11T12:28:18;101019.50;;;22.84;24.32
25510;BME280;13413;52.336;21.200;2023-05-11T12:31:12;101021.07;;;22.88;24.45
25510;BME280;13413;52.336;21.200;2023-05-11T12:37:00;101012.58;;;22.10;24.75
25510;BME280;13413;52.336;21.200;2023-05-11T12:39:58;101018.56;;;21.86;24.79
25510;BME280;13413;52.336;21.200;2023-05-11T12:42:51;101005.60;;;21.66;24.58
25510;BME280;13413;52.336;21.200;2023-05-11T12:45:46;101011.08;;;21.23;24.55
25510;BME280;13413;52.336;21.200;2023-05-11T12:48:41;101006.11;;;21.34;24.91
25510;BME280;13413;52.336;21.200;2023-05-11T12:51:50;100997.19;;;21.31;25.09
25510;BME280;13413;52.336;21.200;2023-05-11T12:54:49;101000.20;;;21.38;25.28
25510;BME280;13413;52.336;21.200;2023-05-11T12:57:43;100999.83;;;21.40;25.27
25510;BME280;13413;52.336;21.200;2023-05-11T13:00:38;100986.62;;;21.46;25.33
25510;BME280;13413;52.336;21.200;2023-05-11T13:03:46;100986.74;;;21.68;25.41
25510;BME280;13413;52.336;21.200;2023-05-11T13:06:45;100976.06;;;21.41;25.08
25510;BME280;13413;52.336;21.200;2023-05-11T13:09:39;100983.18;;;21.51;25.33
25510;BME280;13413;52.336;21.200;2023-05-11T13:12:34;100983.33;;;21.59;25.27
25510;BME280;13413;52.336;21.200;2023-05-11T13:15:27;100983.48;;;21.54;25.22
25510;BME280;13413;52.336;21.200;2023-05-11T13:18:20;100986.98;;;21.25;25.17
25510;BME280;13413;52.336;21.200;2023-05-11T13:21:15;100980.55;;;21.16;25.35
25510;BME280;13413;52.336;21.200;2023-05-11T13:24:21;100979.30;;;21.28;25.72
25510;BME280;13413;52.336;21.200;2023-05-11T13:30:10;100971.90;;;21.44;25.45
25510;BME280;13413;52.336;21.200;2023-05-11T13:33:05;100969.42;;;21.56;25.70
25510;BME280;13413;52.336;21.200;2023-05-11T13:35:59;100964.69;;;21.63;25.65
25510;BME280;13413;52.336;21.200;2023-05-11T13:38:54;100974.08;;;21.48;25.60
25510;BME280;13413;52.336;21.200;2023-05-11T13:41:48;100968.65;;;21.66;25.32
25510;BME280;13413;52.336;21.200;2023-05-11T13:44:41;100970.56;;;21.60;25.32
25510;BME280;13413;52.336;21.200;2023-05-11T13:47:36;100966.67;;;21.51;25.27
25510;BME280;13413;52.336;21.200;2023-05-11T13:50:30;100965.60;;;21.33;25.27
25510;BME280;13413;52.336;21.200;2023-05-11T13:53:24;100965.13;;;21.29;25.53
25510;BME280;13413;52.336;21.200;2023-05-11T13:56:17;100965.98;;;21.21;25.48
25510;BME280;13413;52.336;21.200;2023-05-11T13:59:11;100957.67;;;21.12;25.50
25510;BME280;13413;52.336;21.200;2023-05-11T14:02:05;100968.20;;;21.01;25.64
25510;BME280;13413;52.336;21.200;2023-05-11T14:04:59;100956.30;;;21.06;25.63
25510;BME280;13413;52.336;21.200;2023-05-11T14:07:53;100964.98;;;21.08;25.97
25510;BME280;13413;52.336;21.200;2023-05-11T14:10:47;100955.48;;;21.26;25.82
25510;BME280;13413;52.336;21.200;2023-05-11T14:13:41;100960.80;;;21.26;25.50
25510;BME280;13413;52.336;21.200;2023-05-11T14:16:36;100951.91;;;21.23;25.68
25510;BME280;13413;52.336;21.200;2023-05-11T14:19:30;100954.06;;;21.21;25.61
25510;BME280;13413;52.336;21.200;2023-05-11T14:22:24;100949.95;;;21.22;25.67
25510;BME280;13413;52.336;21.200;2023-05-11T14:25:20;100950.03;;;21.21;25.62
25510;BME280;13413;52.336;21.200;2023-05-11T14:28:14;100949.96;;;21.27;25.94
25510;BME280;13413;52.336;21.200;2023-05-11T14:31:07;100943.04;;;21.37;25.85
25510;BME280;13413;52.336;21.200;2023-05-11T14:39:34;100944.65;;;21.23;25.85
25510;BME280;13413;52.336;21.200;2023-05-11T14:42:28;100937.27;;;21.18;25.74
25510;BME280;13413;52.336;21.200;2023-05-11T14:45:22;100941.65;;;21.09;25.69
25510;BME280;13413;52.336;21.200;2023-05-11T14:48:16;100941.68;;;21.08;26.01
25510;BME280;13413;52.336;21.200;2023-05-11T14:51:10;100946.41;;;20.98;25.82
25510;BME280;13413;52.336;21.200;2023-05-11T14:54:05;100942.09;;;20.92;25.91
25510;BME280;13413;52.336;21.200;2023-05-11T14:56:58;100940.61;;;20.95;26.16
25510;BME280;13413;52.336;21.200;2023-05-11T14:59:53;100944.36;;;20.88;26.05
25510;BME280;13413;52.336;21.200;2023-05-11T15:02:47;100940.98;;;20.80;26.15
25510;BME280;13413;52.336;21.200;2023-05-11T15:05:42;100944.60;;;20.78;26.20
25510;BME280;13413;52.336;21.200;2023-05-11T15:08:49;100938.03;;;20.73;26.11
25510;BME280;13413;52.336;21.200;2023-05-11T15:11:44;100946.14;;;20.85;26.46
25510;BME280;13413;52.336;21.200;2023-05-11T15:14:37;100938.91;;;20.97;26.38
25510;BME280;13413;52.336;21.200;2023-05-11T15:17:31;100940.38;;;21.08;26.47
25510;BME280;13413;52.336;21.200;2023-05-11T15:20:25;100941.13;;;21.10;26.02
25510;BME280;13413;52.336;21.200;2023-05-11T15:23:19;100937.26;;;21.12;26.03
25510;BME280;13413;52.336;21.200;2023-05-11T15:26:14;100939.29;;;21.13;26.20
25510;BME280;13413;52.336;21.200;2023-05-11T15:29:08;100939.89;;;21.06;26.20
25510;BME280;13413;52.336;21.200;2023-05-11T15:32:03;100941.38;;;21.11;26.29
25510;BME280;13413;52.336;21.200;2023-05-11T15:34:56;100939.20;;;21.08;26.09
25510;BME280;13413;52.336;21.200;2023-05-11T15:37:50;100936.19;;;21.14;26.04
25510;BME280;13413;52.336;21.200;2023-05-11T15:40:44;100939.98;;;21.16;25.63
25510;BME280;13413;52.336;21.200;2023-05-11T15:43:41;100939.45;;;21.13;25.68
25510;BME280;13413;52.336;21.200;2023-05-11T15:46:36;100942.75;;;21.15;25.80
25510;BME280;13413;52.336;21.200;2023-05-11T15:49:31;100944.60;;;21.24;26.07
25510;BME280;13413;52.336;21.200;2023-05-11T15:52:24;100948.88;;;21.24;25.69
25510;BME280;13413;52.336;21.200;2023-05-11T15:55:17;100949.92;;;21.21;25.91
25510;BME280;13413;52.336;21.200;2023-05-11T15:58:11;100950.38;;;21.20;25.86
25510;BME280;13413;52.336;21.200;2023-05-11T16:01:05;100955.89;;;21.16;26.03
25510;BME280;13413;52.336;21.200;2023-05-11T16:04:00;100948.89;;;21.18;26.17
25510;BME280;13413;52.336;21.200;2023-05-11T16:06:55;100949.06;;;21.14;26.06
25510;BME280;13413;52.336;21.200;2023-05-11T16:09:49;100953.88;;;21.10;26.30
25510;BME280;13413;52.336;21.200;2023-05-11T16:12:43;100948.71;;;21.12;26.24
25510;BME280;13413;52.336;21.200;2023-05-11T16:15:37;100947.48;;;20.99;26.41
25510;BME280;13413;52.336;21.200;2023-05-11T16:18:32;100952.85;;;20.85;26.67
25510;BME280;13413;52.336;21.200;2023-05-11T16:21:26;100958.13;;;20.82;26.74